sensor_id;sensor_type;location;lat;lon;timestamp;P1;durP1;ratioP1;P2;durP2;ratioP2
20731;SDS011;10527;52.124;5.196;2022-10-17T00:00:58;3.80;;;2.00;;
20731;SDS011;10527;52.124;5.196;2022-10-17T00:03:25;2.60;;;1.85;;
20731;SDS011;10527;52.124;5.196;2022-10-17T00:05:51;3.25;;;2.20;;
20731;SDS011;10527;52.124;5.196;2022-10-17T00:08:18;2.05;;;1.88;;
20731;SDS011;10527;52.124;5.196;2022-10-17T00:10:53;5.78;;;1.98;;
20731;SDS011;10527;52.124;5.196;2022-10-17T00:13:26;3.10;;;1.83;;
20731;SDS011;10527;52.124;5.196;2022-10-17T00:15:54;4.18;;;2.28;;
20731;SDS011;10527;52.124;5.196;2022-10-17T00:18:21;4.57;;;2.30;;
20731;SDS011;10527;52.124;5.196;2022-10-17T00:20:48;3.63;;;2.47;;
20731;SDS011;10527;52.124;5.196;2022-10-17T00:23:16;4.68;;;2.65;;
20731;SDS011;10527;52.124;5.196;2022-10-17T00:25:44;2.80;;;2.40;;
20731;SDS011;10527;52.124;5.196;2022-10-17T00:28:11;2.83;;;2.38;;
20731;SDS011;10527;52.124;5.196;2022-10-17T00:30:40;4.40;;;2.60;;
20731;SDS011;10527;52.124;5.196;2022-10-17T00:33:07;4.15;;;2.30;;
20731;SDS011;10527;52.124;5.196;2022-10-17T00:35:33;3.28;;;2.83;;
20731;SDS011;10527;52.124;5.196;2022-10-17T00:38:00;3.08;;;2.47;;
20731;SDS011;10527;52.124;5.196;2022-10-17T00:40:27;2.60;;;2.05;;
20731;SDS011;10527;52.124;5.196;2022-10-17T00:42:55;3.72;;;2.33;;
20731;SDS011;10527;52.124;5.196;2022-10-17T00:45:28;3.65;;;2.05;;
20731;SDS011;10527;52.124;5.196;2022-10-17T00:48:03;3.75;;;2.20;;
20731;SDS011;10527;52.124;5.196;2022-10-17T00:50:34;4.93;;;2.45;;
20731;SDS011;10527;52.124;5.196;2022-10-17T00:53:05;3.60;;;2.30;;
20731;SDS011;10527;52.124;5.196;2022-10-17T00:55:36;2.95;;;2.38;;
20731;SDS011;10527;52.124;5.196;2022-10-17T00:58:20;4.15;;;2.28;;
20731;SDS011;10527;52.124;5.196;2022-10-17T01:00:47;4.55;;;2.60;;
20731;SDS011;10527;52.124;5.196;2022-10-17T01:03:14;3.65;;;2.60;;
20731;SDS011;10527;52.124;5.196;2022-10-17T01:05:42;4.03;;;2.83;;
20731;SDS011;10527;52.124;5.196;2022-10-17T01:08:09;3.03;;;2.17;;
20731;SDS011;10527;52.124;5.196;2022-10-17T01:10:47;4.10;;;2.50;;
20731;SDS011;10527;52.124;5.196;2022-10-17T01:13:48;6.70;;;2.95;;
20731;SDS011;10527;52.124;5.196;2022-10-17T01:19:43;3.03;;;2.58;;
20731;SDS011;10527;52.124;5.196;2022-10-17T01:22:44;2.95;;;2.10;;
20731;SDS011;10527;52.124;5.196;2022-10-17T01:32:04;3.58;;;2.72;;
20731;SDS011;10527;52.124;5.196;2022-10-17T01:35:07;3.40;;;2.72;;
20731;SDS011;10527;52.124;5.196;2022-10-17T01:40:37;6.90;;;3.00;;
20731;SDS011;10527;52.124;5.196;2022-10-17T01:43:22;4.28;;;2.83;;
20731;SDS011;10527;52.124;5.196;2022-10-17T01:46:00;3.45;;;2.85;;
20731;SDS011;10527;52.124;5.196;2022-10-17T01:48:35;5.60;;;3.72;;
20731;SDS011;10527;52.124;5.196;2022-10-17T01:54:08;4.43;;;3.50;;
20731;SDS011;10527;52.124;5.196;2022-10-17T01:56:57;8.13;;;3.47;;
20731;SDS011;10527;52.124;5.196;2022-10-17T01:59:30;4.40;;;3.42;;
20731;SDS011;10527;52.124;5.196;2022-10-17T02:02:10;3.95;;;3.40;;
20731;SDS011;10527;52.124;5.196;2022-10-17T02:04:40;4.90;;;3.92;;
20731;SDS011;10527;52.124;5.196;2022-10-17T02:07:08;3.95;;;3.42;;
20731;SDS011;10527;52.124;5.196;2022-10-17T02:09:37;5.20;;;4.03;;
20731;SDS011;10527;52.124;5.196;2022-10-17T02:21:11;4.85;;;4.03;;
20731;SDS011;10527;52.124;5.196;2022-10-17T02:23:54;6.07;;;4.45;;
20731;SDS011;10527;52.124;5.196;2022-10-17T02:26:40;4.63;;;4.07;;
20731;SDS011;10527;52.124;5.196;2022-10-17T02:29:46;4.63;;;4.10;;
20731;SDS011;10527;52.124;5.196;2022-10-17T02:32:47;4.70;;;3.92;;
20731;SDS011;10527;52.124;5.196;2022-10-17T02:35:23;7.55;;;4.45;;
20731;SDS011;10527;52.124;5.196;2022-10-17T02:37:57;5.90;;;4.43;;
20731;SDS011;10527;52.124;5.196;2022-10-17T02:40:27;5.55;;;3.78;;
20731;SDS011;10527;52.124;5.196;2022-10-17T02:42:57;6.18;;;4.38;;
20731;SDS011;10527;52.124;5.196;2022-10-17T02:45:28;7.30;;;4.45;;
20731;SDS011;10527;52.124;5.196;2022-10-17T02:56:54;5.93;;;4.50;;
20731;SDS011;10527;52.124;5.196;2022-10-17T02:59:41;4.97;;;4.47;;
20731;SDS011;10527;52.124;5.196;2022-10-17T03:02:11;6.05;;;5.05;;
20731;SDS011;10527;52.124;5.196;2022-10-17T03:04:41;6.32;;;4.22;;
20731;SDS011;10527;52.124;5.196;2022-10-17T03:07:13;5.80;;;4.78;;
20731;SDS011;10527;52.124;5.196;2022-10-17T03:09:42;5.28;;;4.68;;
20731;SDS011;10527;52.124;5.196;2022-10-17T03:12:09;8.55;;;5.20;;
20731;SDS011;10527;52.124;5.196;2022-10-17T03:14:35;6.18;;;5.35;;
20731;SDS011;10527;52.124;5.196;2022-10-17T03:17:02;6.18;;;5.35;;
20731;SDS011;10527;52.124;5.196;2022-10-17T03:19:29;6.03;;;5.20;;
20731;SDS011;10527;52.124;5.196;2022-10-17T03:21:57;6.82;;;4.72;;
20731;SDS011;10527;52.124;5.196;2022-10-17T03:24:23;5.88;;;4.90;;
20731;SDS011;10527;52.124;5.196;2022-10-17T03:26:50;5.70;;;5.03;;
20731;SDS011;10527;52.124;5.196;2022-10-17T03:29:17;5.30;;;4.70;;
20731;SDS011;10527;52.124;5.196;2022-10-17T03:31:45;7.68;;;5.15;;
20731;SDS011;10527;52.124;5.196;2022-10-17T03:34:13;5.55;;;4.90;;
20731;SDS011;10527;52.124;5.196;2022-10-17T03:36:42;6.93;;;4.78;;
20731;SDS011;10527;52.124;5.196;2022-10-17T03:39:10;8.57;;;5.05;;
20731;SDS011;10527;52.124;5.196;2022-10-17T03:41:36;7.60;;;5.13;;
20731;SDS011;10527;52.124;5.196;2022-10-17T03:44:03;5.75;;;5.13;;
20731;SDS011;10527;52.124;5.196;2022-10-17T03:46:30;6.25;;;4.63;;
20731;SDS011;10527;52.124;5.196;2022-10-17T03:48:58;6.63;;;4.80;;
20731;SDS011;10527;52.124;5.196;2022-10-17T03:51:25;8.88;;;4.50;;
20731;SDS011;10527;52.124;5.196;2022-10-17T03:53:52;6.43;;;4.70;;
20731;SDS011;10527;52.124;5.196;2022-10-17T03:56:23;9.23;;;6.03;;
20731;SDS011;10527;52.124;5.196;2022-10-17T03:58:51;6.88;;;4.65;;
20731;SDS011;10527;52.124;5.196;2022-10-17T04:01:19;5.60;;;4.25;;
20731;SDS011;10527;52.124;5.196;2022-10-17T04:03:52;7.47;;;4.75;;
20731;SDS011;10527;52.124;5.196;2022-10-17T04:06:22;5.63;;;4.65;;
20731;SDS011;10527;52.124;5.196;2022-10-17T04:08:49;5.43;;;4.18;;
20731;SDS011;10527;52.124;5.196;2022-10-17T04:11:17;8.27;;;5.18;;
20731;SDS011;10527;52.124;5.196;2022-10-17T04:13:46;5.55;;;4.82;;
20731;SDS011;10527;52.124;5.196;2022-10-17T04:16:21;4.97;;;4.43;;
20731;SDS011;10527;52.124;5.196;2022-10-17T04:18:56;10.23;;;5.03;;
20731;SDS011;10527;52.124;5.196;2022-10-17T04:21:25;6.07;;;4.13;;
20731;SDS011;10527;52.124;5.196;2022-10-17T04:23:54;4.60;;;4.00;;
20731;SDS011;10527;52.124;5.196;2022-10-17T04:26:24;14.30;;;7.38;;
20731;SDS011;10527;52.124;5.196;2022-10-17T04:28:59;5.43;;;4.90;;
20731;SDS011;10527;52.124;5.196;2022-10-17T04:31:26;6.53;;;5.05;;
20731;SDS011;10527;52.124;5.196;2022-10-17T04:33:52;5.60;;;4.72;;
20731;SDS011;10527;52.124;5.196;2022-10-17T04:36:19;6.78;;;4.53;;
20731;SDS011;10527;52.124;5.196;2022-10-17T04:38:47;6.18;;;4.63;;
20731;SDS011;10527;52.124;5.196;2022-10-17T04:41:15;5.78;;;4.38;;
20731;SDS011;10527;52.124;5.196;2022-10-17T04:43:45;5.25;;;4.28;;
20731;SDS011;10527;52.124;5.196;2022-10-17T04:46:16;5.47;;;4.78;;
20731;SDS011;10527;52.124;5.196;2022-10-17T04:48:48;5.85;;;4.43;;
20731;SDS011;10527;52.124;5.196;2022-10-17T04:51:16;6.13;;;5.05;;
20731;SDS011;10527;52.124;5.196;2022-10-17T04:53:48;5.97;;;4.50;;
20731;SDS011;10527;52.124;5.196;2022-10-17T04:56:16;5.13;;;4.63;;
20731;SDS011;10527;52.124;5.196;2022-10-17T04:58:46;5.60;;;4.28;;
20731;SDS011;10527;52.124;5.196;2022-10-17T05:01:15;6.22;;;4.65;;
20731;SDS011;10527;52.124;5.196;2022-10-17T05:03:44;5.88;;;4.63;;
20731;SDS011;10527;52.124;5.196;2022-10-17T05:06:12;8.48;;;5.22;;
20731;SDS011;10527;52.124;5.196;2022-10-17T05:08:46;8.43;;;5.47;;
20731;SDS011;10527;52.124;5.196;2022-10-17T05:11:18;8.68;;;4.60;;
20731;SDS011;10527;52.124;5.196;2022-10-17T05:13:53;6.40;;;4.97;;
20731;SDS011;10527;52.124;5.196;2022-10-17T05:16:26;6.32;;;4.50;;
20731;SDS011;10527;52.124;5.196;2022-10-17T05:18:55;7.10;;;5.05;;
20731;SDS011;10527;52.124;5.196;2022-10-17T05:21:24;6.65;;;4.88;;
20731;SDS011;10527;52.124;5.196;2022-10-17T05:23:56;6.00;;;4.93;;
20731;SDS011;10527;52.124;5.196;2022-10-17T05:26:24;10.60;;;5.38;;
20731;SDS011;10527;52.124;5.196;2022-10-17T05:28:51;4.32;;;3.92;;
20731;SDS011;10527;52.124;5.196;2022-10-17T05:31:19;5.95;;;4.65;;
20731;SDS011;10527;52.124;5.196;2022-10-17T05:33:49;5.18;;;4.18;;
20731;SDS011;10527;52.124;5.196;2022-10-17T05:36:15;5.22;;;4.38;;
20731;SDS011;10527;52.124;5.196;2022-10-17T05:38:42;4.22;;;3.83;;
20731;SDS011;10527;52.124;5.196;2022-10-17T05:41:09;6.03;;;4.38;;
20731;SDS011;10527;52.124;5.196;2022-10-17T05:43:36;5.70;;;4.45;;
20731;SDS011;10527;52.124;5.196;2022-10-17T05:46:03;5.30;;;4.70;;
20731;SDS011;10527;52.124;5.196;2022-10-17T05:48:31;5.25;;;4.25;;
20731;SDS011;10527;52.124;5.196;2022-10-17T05:51:03;6.57;;;4.47;;
20731;SDS011;10527;52.124;5.196;2022-10-17T05:53:38;9.02;;;5.20;;
20731;SDS011;10527;52.124;5.196;2022-10-17T05:56:08;6.07;;;4.50;;
20731;SDS011;10527;52.124;5.196;2022-10-17T05:58:40;8.63;;;4.38;;
20731;SDS011;10527;52.124;5.196;2022-10-17T06:01:16;5.43;;;4.47;;
20731;SDS011;10527;52.124;5.196;2022-10-17T06:03:45;6.28;;;4.38;;
20731;SDS011;10527;52.124;5.196;2022-10-17T06:06:12;7.50;;;5.00;;
20731;SDS011;10527;52.124;5.196;2022-10-17T06:08:40;5.40;;;4.78;;
20731;SDS011;10527;52.124;5.196;2022-10-17T06:11:08;8.77;;;5.43;;
20731;SDS011;10527;52.124;5.196;2022-10-17T06:13:37;6.80;;;4.88;;
20731;SDS011;10527;52.124;5.196;2022-10-17T06:16:05;5.03;;;4.05;;
20731;SDS011;10527;52.124;5.196;2022-10-17T06:18:32;7.00;;;4.30;;
20731;SDS011;10527;52.124;5.196;2022-10-17T06:21:04;5.57;;;4.30;;
20731;SDS011;10527;52.124;5.196;2022-10-17T06:23:35;6.47;;;4.20;;
20731;SDS011;10527;52.124;5.196;2022-10-17T06:26:02;7.05;;;4.82;;
20731;SDS011;10527;52.124;5.196;2022-10-17T06:28:31;5.82;;;4.57;;
20731;SDS011;10527;52.124;5.196;2022-10-17T06:31:02;6.78;;;5.00;;
20731;SDS011;10527;52.124;5.196;2022-10-17T06:33:31;5.05;;;4.55;;
20731;SDS011;10527;52.124;5.196;2022-10-17T06:36:01;8.90;;;5.10;;
20731;SDS011;10527;52.124;5.196;2022-10-17T06:38:30;9.63;;;4.80;;
20731;SDS011;10527;52.124;5.196;2022-10-17T06:41:07;6.22;;;4.80;;
20731;SDS011;10527;52.124;5.196;2022-10-17T06:43:40;6.43;;;5.18;;
20731;SDS011;10527;52.124;5.196;2022-10-17T06:46:14;5.22;;;4.72;;
20731;SDS011;10527;52.124;5.196;2022-10-17T06:48:44;8.02;;;5.22;;
20731;SDS011;10527;52.124;5.196;2022-10-17T06:51:11;5.50;;;4.90;;
20731;SDS011;10527;52.124;5.196;2022-10-17T06:53:38;6.95;;;4.78;;
20731;SDS011;10527;52.124;5.196;2022-10-17T06:56:06;8.50;;;4.55;;
20731;SDS011;10527;52.124;5.196;2022-10-17T06:58:36;6.63;;;4.70;;
20731;SDS011;10527;52.124;5.196;2022-10-17T07:01:06;5.28;;;4.53;;
20731;SDS011;10527;52.124;5.196;2022-10-17T07:03:35;7.13;;;4.82;;
20731;SDS011;10527;52.124;5.196;2022-10-17T07:06:03;6.22;;;4.82;;
20731;SDS011;10527;52.124;5.196;2022-10-17T07:08:32;7.90;;;4.72;;
20731;SDS011;10527;52.124;5.196;2022-10-17T07:11:07;4.50;;;3.97;;
20731;SDS011;10527;52.124;5.196;2022-10-17T07:13:36;5.82;;;4.65;;
20731;SDS011;10527;52.124;5.196;2022-10-17T07:16:04;9.52;;;4.72;;
20731;SDS011;10527;52.124;5.196;2022-10-17T07:18:32;4.82;;;4.32;;
20731;SDS011;10527;52.124;5.196;2022-10-17T07:20:59;5.25;;;4.63;;
20731;SDS011;10527;52.124;5.196;2022-10-17T07:23:27;6.25;;;4.72;;
20731;SDS011;10527;52.124;5.196;2022-10-17T07:26:00;7.28;;;5.07;;
20731;SDS011;10527;52.124;5.196;2022-10-17T07:28:33;5.32;;;4.30;;
20731;SDS011;10527;52.124;5.196;2022-10-17T07:31:05;5.22;;;4.72;;
20731;SDS011;10527;52.124;5.196;2022-10-17T07:33:35;5.85;;;4.47;;
20731;SDS011;10527;52.124;5.196;2022-10-17T07:36:02;6.85;;;4.78;;
20731;SDS011;10527;52.124;5.196;2022-10-17T07:38:31;5.55;;;4.43;;
20731;SDS011;10527;52.124;5.196;2022-10-17T07:41:02;5.10;;;4.35;;
20731;SDS011;10527;52.124;5.196;2022-10-17T07:43:32;4.80;;;4.07;;
20731;SDS011;10527;52.124;5.196;2022-10-17T07:45:59;5.25;;;4.38;;
20731;SDS011;10527;52.124;5.196;2022-10-17T07:48:27;4.80;;;4.05;;
20731;SDS011;10527;52.124;5.196;2022-10-17T07:50:55;5.15;;;4.55;;
20731;SDS011;10527;52.124;5.196;2022-10-17T07:53:21;6.63;;;4.95;;
20731;SDS011;10527;52.124;5.196;2022-10-17T07:55:48;8.15;;;4.78;;
20731;SDS011;10527;52.124;5.196;2022-10-17T07:58:16;7.20;;;4.82;;
20731;SDS011;10527;52.124;5.196;2022-10-17T08:00:43;7.00;;;5.45;;
20731;SDS011;10527;52.124;5.196;2022-10-17T08:03:13;6.15;;;4.95;;
20731;SDS011;10527;52.124;5.196;2022-10-17T08:05:40;6.38;;;4.18;;
20731;SDS011;10527;52.124;5.196;2022-10-17T08:08:07;5.13;;;4.63;;
20731;SDS011;10527;52.124;5.196;2022-10-17T08:10:34;10.77;;;4.68;;
20731;SDS011;10527;52.124;5.196;2022-10-17T08:13:02;5.60;;;4.25;;
20731;SDS011;10527;52.124;5.196;2022-10-17T08:15:28;10.52;;;5.22;;
20731;SDS011;10527;52.124;5.196;2022-10-17T08:17:57;5.80;;;3.95;;
20731;SDS011;10527;52.124;5.196;2022-10-17T08:20:24;5.40;;;3.92;;
20731;SDS011;10527;52.124;5.196;2022-10-17T08:22:55;5.35;;;4.05;;
20731;SDS011;10527;52.124;5.196;2022-10-17T08:25:21;7.75;;;4.60;;
20731;SDS011;10527;52.124;5.196;2022-10-17T08:27:49;9.90;;;4.30;;
20731;SDS011;10527;52.124;5.196;2022-10-17T08:30:16;6.22;;;4.22;;
20731;SDS011;10527;52.124;5.196;2022-10-17T08:32:43;7.15;;;3.75;;
20731;SDS011;10527;52.124;5.196;2022-10-17T08:35:10;5.82;;;4.38;;
20731;SDS011;10527;52.124;5.196;2022-10-17T08:37:37;5.00;;;4.10;;
20731;SDS011;10527;52.124;5.196;2022-10-17T08:40:04;5.65;;;4.57;;
20731;SDS011;10527;52.124;5.196;2022-10-17T08:42:37;5.45;;;4.50;;
20731;SDS011;10527;52.124;5.196;2022-10-17T08:45:53;6.65;;;4.45;;
20731;SDS011;10527;52.124;5.196;2022-10-17T08:48:29;7.78;;;4.32;;
20731;SDS011;10527;52.124;5.196;2022-10-17T08:51:27;7.13;;;5.15;;
20731;SDS011;10527;52.124;5.196;2022-10-17T08:54:02;5.78;;;4.28;;
20731;SDS011;10527;52.124;5.196;2022-10-17T08:56:54;5.25;;;4.18;;
20731;SDS011;10527;52.124;5.196;2022-10-17T08:59:24;5.20;;;4.10;;
20731;SDS011;10527;52.124;5.196;2022-10-17T09:02:00;6.55;;;4.15;;
20731;SDS011;10527;52.124;5.196;2022-10-17T09:08:01;5.10;;;4.03;;
20731;SDS011;10527;52.124;5.196;2022-10-17T09:13:43;4.93;;;3.85;;
20731;SDS011;10527;52.124;5.196;2022-10-17T09:19:27;4.45;;;3.38;;
20731;SDS011;10527;52.124;5.196;2022-10-17T09:22:10;5.28;;;3.83;;
20731;SDS011;10527;52.124;5.196;2022-10-17T09:24:46;6.28;;;3.85;;
20731;SDS011;10527;52.124;5.196;2022-10-17T09:29:49;5.85;;;4.22;;
20731;SDS011;10527;52.124;5.196;2022-10-17T09:33:08;4.20;;;3.60;;
20731;SDS011;10527;52.124;5.196;2022-10-17T09:36:12;5.43;;;3.72;;
20731;SDS011;10527;52.124;5.196;2022-10-17T09:38:54;5.97;;;3.92;;
20731;SDS011;10527;52.124;5.196;2022-10-17T09:41:32;6.60;;;4.25;;
20731;SDS011;10527;52.124;5.196;2022-10-17T09:49:41;5.72;;;4.60;;
20731;SDS011;10527;52.124;5.196;2022-10-17T09:52:15;4.50;;;3.88;;
20731;SDS011;10527;52.124;5.196;2022-10-17T09:54:51;6.72;;;4.15;;
20731;SDS011;10527;52.124;5.196;2022-10-17T09:57:56;4.70;;;4.15;;
20731;SDS011;10527;52.124;5.196;2022-10-17T10:00:48;6.68;;;4.93;;
20731;SDS011;10527;52.124;5.196;2022-10-17T10:03:15;4.97;;;4.07;;
20731;SDS011;10527;52.124;5.196;2022-10-17T10:11:53;5.05;;;4.40;;
20731;SDS011;10527;52.124;5.196;2022-10-17T10:14:23;5.28;;;4.63;;
20731;SDS011;10527;52.124;5.196;2022-10-17T10:16:59;6.95;;;4.90;;
20731;SDS011;10527;52.124;5.196;2022-10-17T10:19:29;6.68;;;5.05;;
20731;SDS011;10527;52.124;5.196;2022-10-17T10:22:13;5.05;;;4.35;;
20731;SDS011;10527;52.124;5.196;2022-10-17T10:24:43;5.97;;;4.75;;
20731;SDS011;10527;52.124;5.196;2022-10-17T10:27:16;6.88;;;4.97;;
20731;SDS011;10527;52.124;5.196;2022-10-17T10:29:48;5.78;;;4.72;;
20731;SDS011;10527;52.124;5.196;2022-10-17T10:32:18;8.27;;;4.95;;
20731;SDS011;10527;52.124;5.196;2022-10-17T10:34:50;10.13;;;5.30;;
20731;SDS011;10527;52.124;5.196;2022-10-17T10:40:03;6.00;;;4.00;;
20731;SDS011;10527;52.124;5.196;2022-10-17T10:42:40;7.22;;;4.90;;
20731;SDS011;10527;52.124;5.196;2022-10-17T10:45:18;6.00;;;4.63;;
20731;SDS011;10527;52.124;5.196;2022-10-17T10:48:22;5.70;;;4.43;;
20731;SDS011;10527;52.124;5.196;2022-10-17T10:53:41;3.97;;;3.30;;
20731;SDS011;10527;52.124;5.196;2022-10-17T10:56:35;3.97;;;3.45;;
20731;SDS011;10527;52.124;5.196;2022-10-17T11:04:32;4.25;;;3.22;;
20731;SDS011;10527;52.124;5.196;2022-10-17T11:07:13;5.32;;;3.47;;
20731;SDS011;10527;52.124;5.196;2022-10-17T11:21:18;3.55;;;3.00;;
20731;SDS011;10527;52.124;5.196;2022-10-17T11:24:01;3.45;;;3.05;;
20731;SDS011;10527;52.124;5.196;2022-10-17T11:26:57;4.75;;;2.97;;
20731;SDS011;10527;52.124;5.196;2022-10-17T11:29:29;4.28;;;3.58;;
20731;SDS011;10527;52.124;5.196;2022-10-17T11:32:12;4.88;;;3.45;;
20731;SDS011;10527;52.124;5.196;2022-10-17T11:34:48;5.18;;;3.33;;
20731;SDS011;10527;52.124;5.196;2022-10-17T11:37:24;5.07;;;3.55;;
20731;SDS011;10527;52.124;5.196;2022-10-17T11:43:00;4.13;;;3.55;;
20731;SDS011;10527;52.124;5.196;2022-10-17T11:51:35;4.93;;;3.60;;
20731;SDS011;10527;52.124;5.196;2022-10-17T12:14:00;3.65;;;2.85;;
20731;SDS011;10527;52.124;5.196;2022-10-17T12:24:34;2.72;;;1.85;;
20731;SDS011;10527;52.124;5.196;2022-10-17T12:30:16;2.78;;;2.42;;
20731;SDS011;10527;52.124;5.196;2022-10-17T12:33:15;3.13;;;2.17;;
20731;SDS011;10527;52.124;5.196;2022-10-17T12:35:48;2.40;;;1.90;;
20731;SDS011;10527;52.124;5.196;2022-10-17T12:40:46;2.38;;;1.80;;
20731;SDS011;10527;52.124;5.196;2022-10-17T12:51:14;3.97;;;1.67;;
20731;SDS011;10527;52.124;5.196;2022-10-17T12:54:01;3.50;;;1.80;;
20731;SDS011;10527;52.124;5.196;2022-10-17T12:56:41;2.10;;;1.80;;
20731;SDS011;10527;52.124;5.196;2022-10-17T12:59:13;2.92;;;1.60;;
20731;SDS011;10527;52.124;5.196;2022-10-17T13:01:58;2.35;;;1.85;;
20731;SDS011;10527;52.124;5.196;2022-10-17T13:04:28;3.13;;;1.63;;
20731;SDS011;10527;52.124;5.196;2022-10-17T13:06:57;3.30;;;1.63;;
20731;SDS011;10527;52.124;5.196;2022-10-17T13:09:31;5.13;;;1.65;;
20731;SDS011;10527;52.124;5.196;2022-10-17T13:12:05;2.05;;;1.80;;
20731;SDS011;10527;52.124;5.196;2022-10-17T13:14:43;3.55;;;1.90;;
20731;SDS011;10527;52.124;5.196;2022-10-17T13:17:23;5.40;;;2.83;;
20731;SDS011;10527;52.124;5.196;2022-10-17T13:19:53;2.42;;;1.83;;
20731;SDS011;10527;52.124;5.196;2022-10-17T13:22:22;2.75;;;2.10;;
20731;SDS011;10527;52.124;5.196;2022-10-17T13:25:08;3.95;;;2.10;;
20731;SDS011;10527;52.124;5.196;2022-10-17T13:27:41;2.78;;;2.50;;
20731;SDS011;10527;52.124;5.196;2022-10-17T13:30:22;3.75;;;3.20;;
20731;SDS011;10527;52.124;5.196;2022-10-17T13:32:59;3.30;;;2.50;;
20731;SDS011;10527;52.124;5.196;2022-10-17T13:35:32;4.15;;;2.95;;
20731;SDS011;10527;52.124;5.196;2022-10-17T13:38:25;3.05;;;2.75;;
20731;SDS011;10527;52.124;5.196;2022-10-17T13:40:57;4.20;;;2.53;;
20731;SDS011;10527;52.124;5.196;2022-10-17T13:43:46;3.13;;;2.83;;
20731;SDS011;10527;52.124;5.196;2022-10-17T13:46:23;2.50;;;2.30;;
20731;SDS011;10527;52.124;5.196;2022-10-17T13:49:11;3.42;;;2.70;;
20731;SDS011;10527;52.124;5.196;2022-10-17T13:52:01;5.13;;;3.30;;
20731;SDS011;10527;52.124;5.196;2022-10-17T13:59:53;3.42;;;3.05;;
20731;SDS011;10527;52.124;5.196;2022-10-17T14:02:25;4.65;;;3.50;;
20731;SDS011;10527;52.124;5.196;2022-10-17T14:07:56;3.67;;;3.30;;
20731;SDS011;10527;52.124;5.196;2022-10-17T14:10:47;6.78;;;3.70;;
20731;SDS011;10527;52.124;5.196;2022-10-17T14:13:21;4.38;;;3.70;;
20731;SDS011;10527;52.124;5.196;2022-10-17T14:15:57;5.88;;;4.03;;
20731;SDS011;10527;52.124;5.196;2022-10-17T14:18:32;5.20;;;3.78;;
20731;SDS011;10527;52.124;5.196;2022-10-17T14:21:02;5.80;;;4.45;;
20731;SDS011;10527;52.124;5.196;2022-10-17T14:23:52;4.55;;;4.15;;
20731;SDS011;10527;52.124;5.196;2022-10-17T14:26:51;4.68;;;3.75;;
20731;SDS011;10527;52.124;5.196;2022-10-17T14:29:30;4.85;;;4.35;;
20731;SDS011;10527;52.124;5.196;2022-10-17T14:32:16;5.53;;;4.18;;
20731;SDS011;10527;52.124;5.196;2022-10-17T14:34:43;5.72;;;4.35;;
20731;SDS011;10527;52.124;5.196;2022-10-17T14:37:42;4.85;;;3.78;;
20731;SDS011;10527;52.124;5.196;2022-10-17T14:40:13;4.70;;;4.18;;
20731;SDS011;10527;52.124;5.196;2022-10-17T14:42:48;5.00;;;4.28;;
20731;SDS011;10527;52.124;5.196;2022-10-17T14:47:55;7.20;;;4.38;;
20731;SDS011;10527;52.124;5.196;2022-10-17T14:50:40;5.15;;;3.95;;
20731;SDS011;10527;52.124;5.196;2022-10-17T14:55:53;5.18;;;3.60;;
20731;SDS011;10527;52.124;5.196;2022-10-17T14:58:46;5.85;;;4.57;;
20731;SDS011;10527;52.124;5.196;2022-10-17T15:01:13;4.68;;;4.18;;
20731;SDS011;10527;52.124;5.196;2022-10-17T15:03:40;7.28;;;4.18;;
20731;SDS011;10527;52.124;5.196;2022-10-17T15:06:21;7.30;;;4.28;;
20731;SDS011;10527;52.124;5.196;2022-10-17T15:08:59;5.13;;;3.83;;
20731;SDS011;10527;52.124;5.196;2022-10-17T15:11:26;6.40;;;3.53;;
20731;SDS011;10527;52.124;5.196;2022-10-17T15:13:53;4.95;;;3.92;;
20731;SDS011;10527;52.124;5.196;2022-10-17T15:16:21;6.55;;;3.90;;
20731;SDS011;10527;52.124;5.196;2022-10-17T15:18:56;6.57;;;4.05;;
20731;SDS011;10527;52.124;5.196;2022-10-17T15:21:25;7.32;;;3.72;;
20731;SDS011;10527;52.124;5.196;2022-10-17T15:24:05;6.15;;;3.53;;
20731;SDS011;10527;52.124;5.196;2022-10-17T15:26:32;4.40;;;4.00;;
20731;SDS011;10527;52.124;5.196;2022-10-17T15:29:00;6.45;;;4.13;;
20731;SDS011;10527;52.124;5.196;2022-10-17T15:31:28;4.70;;;4.00;;
20731;SDS011;10527;52.124;5.196;2022-10-17T15:33:56;4.28;;;3.58;;
20731;SDS011;10527;52.124;5.196;2022-10-17T15:38:54;5.97;;;3.78;;
20731;SDS011;10527;52.124;5.196;2022-10-17T15:41:24;5.07;;;3.55;;
20731;SDS011;10527;52.124;5.196;2022-10-17T15:43:54;3.47;;;3.17;;
20731;SDS011;10527;52.124;5.196;2022-10-17T15:46:23;4.07;;;2.90;;
20731;SDS011;10527;52.124;5.196;2022-10-17T15:48:53;5.18;;;3.10;;
20731;SDS011;10527;52.124;5.196;2022-10-17T15:51:21;5.70;;;3.10;;
20731;SDS011;10527;52.124;5.196;2022-10-17T15:53:49;4.90;;;3.00;;
20731;SDS011;10527;52.124;5.196;2022-10-17T15:56:22;6.50;;;3.35;;
20731;SDS011;10527;52.124;5.196;2022-10-17T15:58:52;4.57;;;3.20;;
20731;SDS011;10527;52.124;5.196;2022-10-17T16:01:24;4.07;;;3.45;;
20731;SDS011;10527;52.124;5.196;2022-10-17T16:03:54;3.45;;;2.95;;
20731;SDS011;10527;52.124;5.196;2022-10-17T16:06:22;5.22;;;2.80;;
20731;SDS011;10527;52.124;5.196;2022-10-17T16:08:49;4.95;;;3.03;;
20731;SDS011;10527;52.124;5.196;2022-10-17T16:11:18;4.00;;;2.75;;
20731;SDS011;10527;52.124;5.196;2022-10-17T16:14:03;4.53;;;3.00;;
20731;SDS011;10527;52.124;5.196;2022-10-17T16:16:34;4.07;;;2.78;;
20731;SDS011;10527;52.124;5.196;2022-10-17T16:19:01;5.63;;;2.60;;
20731;SDS011;10527;52.124;5.196;2022-10-17T16:21:30;4.28;;;2.97;;
20731;SDS011;10527;52.124;5.196;2022-10-17T16:24:01;4.07;;;2.78;;
20731;SDS011;10527;52.124;5.196;2022-10-17T16:26:28;4.95;;;2.88;;
20731;SDS011;10527;52.124;5.196;2022-10-17T16:28:56;5.07;;;2.53;;
20731;SDS011;10527;52.124;5.196;2022-10-17T16:31:29;6.32;;;2.95;;
20731;SDS011;10527;52.124;5.196;2022-10-17T16:34:00;4.32;;;2.70;;
20731;SDS011;10527;52.124;5.196;2022-10-17T16:36:28;5.28;;;2.90;;
20731;SDS011;10527;52.124;5.196;2022-10-17T16:38:55;3.83;;;2.67;;
20731;SDS011;10527;52.124;5.196;2022-10-17T16:41:24;3.90;;;2.58;;
20731;SDS011;10527;52.124;5.196;2022-10-17T16:43:56;5.22;;;2.50;;
20731;SDS011;10527;52.124;5.196;2022-10-17T16:46:27;4.70;;;1.90;;
20731;SDS011;10527;52.124;5.196;2022-10-17T16:48:56;3.85;;;2.65;;
20731;SDS011;10527;52.124;5.196;2022-10-17T16:51:25;6.20;;;2.50;;
20731;SDS011;10527;52.124;5.196;2022-10-17T16:53:54;4.70;;;2.58;;
20731;SDS011;10527;52.124;5.196;2022-10-17T16:56:23;7.57;;;2.10;;
20731;SDS011;10527;52.124;5.196;2022-10-17T16:58:50;5.50;;;2.40;;
20731;SDS011;10527;52.124;5.196;2022-10-17T17:01:18;5.30;;;1.85;;
20731;SDS011;10527;52.124;5.196;2022-10-17T17:03:48;4.50;;;1.70;;
20731;SDS011;10527;52.124;5.196;2022-10-17T17:06:18;3.28;;;1.88;;
20731;SDS011;10527;52.124;5.196;2022-10-17T17:08:52;4.50;;;1.85;;
20731;SDS011;10527;52.124;5.196;2022-10-17T17:11:21;6.13;;;1.80;;
20731;SDS011;10527;52.124;5.196;2022-10-17T17:13:50;2.40;;;1.67;;
20731;SDS011;10527;52.124;5.196;2022-10-17T17:16:20;7.53;;;2.10;;
20731;SDS011;10527;52.124;5.196;2022-10-17T17:18:53;4.13;;;1.98;;
20731;SDS011;10527;52.124;5.196;2022-10-17T17:21:25;2.35;;;1.67;;
20731;SDS011;10527;52.124;5.196;2022-10-17T17:23:53;3.53;;;1.95;;
20731;SDS011;10527;52.124;5.196;2022-10-17T17:26:23;5.47;;;2.42;;
20731;SDS011;10527;52.124;5.196;2022-10-17T17:28:56;2.47;;;1.65;;
20731;SDS011;10527;52.124;5.196;2022-10-17T17:31:28;4.00;;;2.35;;
20731;SDS011;10527;52.124;5.196;2022-10-17T17:33:59;4.28;;;2.05;;
20731;SDS011;10527;52.124;5.196;2022-10-17T17:36:31;3.92;;;2.30;;
20731;SDS011;10527;52.124;5.196;2022-10-17T17:39:03;3.90;;;2.13;;
20731;SDS011;10527;52.124;5.196;2022-10-17T17:41:33;5.10;;;2.83;;
20731;SDS011;10527;52.124;5.196;2022-10-17T17:44:01;4.57;;;2.22;;
20731;SDS011;10527;52.124;5.196;2022-10-17T17:46:29;3.50;;;2.15;;
20731;SDS011;10527;52.124;5.196;2022-10-17T17:48:57;3.95;;;2.40;;